createdAt,value
2023-03-18T00:01:27.226Z,2.38
2023-03-18T00:03:36.354Z,2.40
2023-03-18T00:05:45.000Z,2.90
2023-03-18T00:07:55.528Z,2.80
2023-03-18T00:10:03.941Z,2.63
2023-03-18T00:12:12.660Z,3.28
2023-03-18T00:14:20.671Z,2.38
2023-03-18T00:16:32.557Z,2.97
2023-03-18T00:18:41.875Z,2.83
2023-03-18T00:20:49.792Z,2.45
2023-03-18T00:23:00.906Z,2.60
2023-03-18T00:25:11.991Z,2.35
2023-03-18T00:27:20.201Z,3.05
2023-03-18T00:29:28.389Z,2.97
2023-03-18T00:31:36.468Z,3.03
2023-03-18T00:33:46.299Z,3.40
2023-03-18T00:35:55.904Z,4.00
2023-03-18T00:38:09.080Z,3.50
2023-03-18T00:40:20.637Z,3.65
2023-03-18T00:42:36.221Z,4.43
2023-03-18T00:44:45.290Z,4.70
2023-03-18T00:46:54.034Z,4.50
2023-03-18T00:49:05.328Z,4.50
2023-03-18T00:51:14.453Z,4.60
2023-03-18T00:53:26.274Z,4.60
2023-03-18T00:55:35.305Z,4.55
2023-03-18T00:57:43.569Z,5.43
2023-03-18T00:59:51.621Z,5.30
2023-03-18T01:01:59.681Z,4.70
2023-03-18T01:04:07.809Z,5.85
2023-03-18T01:06:17.933Z,5.78
2023-03-18T01:08:28.535Z,5.88
2023-03-18T01:10:36.502Z,6.00
2023-03-18T01:12:46.741Z,6.20
2023-03-18T01:14:54.588Z,6.40
2023-03-18T01:17:02.494Z,6.38
2023-03-18T01:19:10.818Z,5.13
2023-03-18T01:21:18.688Z,5.32
2023-03-18T01:23:35.499Z,5.28
2023-03-18T01:25:44.868Z,4.57
2023-03-18T01:27:58.429Z,4.38
2023-03-18T01:30:06.971Z,4.38
2023-03-18T01:32:15.009Z,4.10
2023-03-18T01:34:24.002Z,3.60
2023-03-18T01:36:33.774Z,4.10
2023-03-18T01:38:49.789Z,3.50
2023-03-18T01:40:57.923Z,4.63
2023-03-18T01:43:17.874Z,3.67
2023-03-18T01:45:30.520Z,3.67
2023-03-18T01:47:41.688Z,4.00
2023-03-18T01:49:52.667Z,4.25
2023-03-18T01:52:03.848Z,5.10
2023-03-18T01:54:16.295Z,5.78
2023-03-18T01:56:24.846Z,5.10
2023-03-18T01:58:37.778Z,5.70
2023-03-18T02:00:53.630Z,4.63
2023-03-18T02:03:01.875Z,4.22
2023-03-18T02:05:13.109Z,3.85
2023-03-18T02:07:22.916Z,3.63
2023-03-18T02:09:34.422Z,2.88
2023-03-18T02:11:50.212Z,3.20
2023-03-18T02:13:59.563Z,2.95
2023-03-18T02:16:11.099Z,3.00
2023-03-18T02:18:23.391Z,3.20
2023-03-18T02:20:51.298Z,3.35
2023-03-18T02:23:11.250Z,3.30
2023-03-18T02:25:35.393Z,2.67
2023-03-18T02:27:49.570Z,2.90
2023-03-18T02:29:59.906Z,3.22
2023-03-18T02:32:11.110Z,2.85
2023-03-18T02:34:19.852Z,2.83
2023-03-18T02:36:31.752Z,2.40
2023-03-18T02:38:44.471Z,3.20
2023-03-18T02:40:56.553Z,3.60
2023-03-18T02:43:23.299Z,2.70
2023-03-18T02:45:44.903Z,2.92
2023-03-18T02:47:57.762Z,2.90
2023-03-18T02:50:05.823Z,2.92
2023-03-18T02:52:15.375Z,3.13
2023-03-18T02:54:26.794Z,3.55
2023-03-18T02:56:35.378Z,6.25
2023-03-18T02:58:46.244Z,7.82
2023-03-18T03:00:57.708Z,6.95
2023-03-18T03:03:07.467Z,8.05
2023-03-18T03:05:15.792Z,7.10
2023-03-18T03:07:23.830Z,7.80
2023-03-18T03:09:33.989Z,7.10
2023-03-18T03:11:43.077Z,6.47
2023-03-18T03:13:57.734Z,7.10
2023-03-18T03:16:06.647Z,6.40
2023-03-18T03:18:14.738Z,7.63
2023-03-18T03:20:24.977Z,6.63
2023-03-18T03:22:33.000Z,6.28
2023-03-18T03:25:00.000Z,4.57
2023-03-18T03:27:08.441Z,3.75
2023-03-18T03:29:19.224Z,4.90
2023-03-18T03:31:31.206Z,3.80
2023-03-18T03:33:41.572Z,3.22
2023-03-18T03:35:49.555Z,3.33
2023-03-18T03:37:57.869Z,3.20
2023-03-18T03:40:06.499Z,4.22
2023-03-18T03:42:14.482Z,4.40
2023-03-18T03:44:27.405Z,5.22
2023-03-18T03:46:35.628Z,4.28
2023-03-18T03:48:43.709Z,3.70
2023-03-18T03:50:54.679Z,3.70
2023-03-18T03:53:02.731Z,3.17
2023-03-18T03:55:14.262Z,2.63
2023-03-18T03:57:23.909Z,2.22
2023-03-18T03:59:34.658Z,2.90
2023-03-18T04:02:01.443Z,2.25
2023-03-18T04:04:09.864Z,2.63
2023-03-18T04:06:17.921Z,2.40
2023-03-18T04:08:35.630Z,3.15
2023-03-18T04:10:43.910Z,1.90
2023-03-18T04:12:52.981Z,2.10
2023-03-18T04:15:03.454Z,2.10
2023-03-18T04:17:11.664Z,3.00
2023-03-18T04:19:20.273Z,2.03
2023-03-18T04:21:28.562Z,2.35
2023-03-18T04:23:37.731Z,2.42
2023-03-18T04:25:46.001Z,2.50
2023-03-18T04:27:55.578Z,2.00
2023-03-18T04:30:06.714Z,2.30
2023-03-18T04:32:21.267Z,2.95
2023-03-18T04:34:29.580Z,3.60
2023-03-18T04:36:37.952Z,3.90
2023-03-18T04:38:46.496Z,3.45
2023-03-18T04:40:54.751Z,3.88
2023-03-18T04:43:03.738Z,3.78
2023-03-18T04:45:15.660Z,4.80
2023-03-18T04:47:24.997Z,4.38
2023-03-18T04:49:34.698Z,4.60
2023-03-18T04:51:45.974Z,4.32
2023-03-18T04:54:03.909Z,4.30
2023-03-18T04:56:12.824Z,4.40
2023-03-18T04:58:29.164Z,3.50
2023-03-18T05:00:51.415Z,4.15
2023-03-18T05:03:07.474Z,4.15
2023-03-18T05:05:15.920Z,4.47
2023-03-18T05:07:28.475Z,4.40
2023-03-18T05:09:42.587Z,4.35
2023-03-18T05:11:51.057Z,5.10
2023-03-18T05:14:07.219Z,4.47
2023-03-18T05:16:25.153Z,4.00
2023-03-18T05:18:35.074Z,4.95
2023-03-18T05:20:44.756Z,5.00
2023-03-18T05:22:55.226Z,4.97
2023-03-18T05:25:16.473Z,5.65
2023-03-18T05:27:25.165Z,4.90
2023-03-18T05:29:41.386Z,4.45
2023-03-18T05:32:14.814Z,4.82
2023-03-18T05:34:23.335Z,4.88
2023-03-18T05:36:33.182Z,4.50
2023-03-18T05:38:47.677Z,4.10
2023-03-18T05:40:55.770Z,4.18
2023-03-18T05:43:10.607Z,4.97
2023-03-18T05:45:24.860Z,4.50
2023-03-18T05:47:38.590Z,4.95
2023-03-18T05:49:51.478Z,4.57
2023-03-18T05:52:04.338Z,4.35
2023-03-18T05:54:39.459Z,4.10
2023-03-18T05:56:48.763Z,4.68
2023-03-18T05:58:57.297Z,5.13
2023-03-18T06:01:16.561Z,5.40
2023-03-18T06:03:27.652Z,6.68
2023-03-18T06:05:36.096Z,7.57
2023-03-18T06:07:45.691Z,8.55
2023-03-18T06:09:54.014Z,7.05
2023-03-18T06:12:02.320Z,6.32
2023-03-18T06:14:12.865Z,5.35
2023-03-18T06:16:21.183Z,4.82
2023-03-18T06:18:31.888Z,4.90
2023-03-18T06:20:41.359Z,4.90
2023-03-18T06:22:51.882Z,5.00
2023-03-18T06:25:04.905Z,4.80
2023-03-18T06:27:13.043Z,4.45
2023-03-18T06:29:24.318Z,4.97
2023-03-18T06:31:34.984Z,4.53
2023-03-18T06:33:49.575Z,4.13
2023-03-18T06:36:00.424Z,5.32
2023-03-18T06:38:11.092Z,4.80
2023-03-18T06:40:20.507Z,5.75
2023-03-18T06:42:29.835Z,5.53
2023-03-18T06:44:54.924Z,4.80
2023-03-18T06:47:10.274Z,4.97
2023-03-18T06:49:25.010Z,5.00
2023-03-18T06:51:40.035Z,5.25
2023-03-18T06:53:48.370Z,4.68
2023-03-18T06:55:56.895Z,5.07
2023-03-18T06:58:08.221Z,5.45
2023-03-18T07:00:26.049Z,5.05
2023-03-18T07:02:39.370Z,5.22
2023-03-18T07:04:51.498Z,5.50
2023-03-18T07:07:00.502Z,5.63
2023-03-18T07:09:10.811Z,5.53
2023-03-18T07:11:19.213Z,6.60
2023-03-18T07:13:27.533Z,6.50
2023-03-18T07:15:35.887Z,6.45
2023-03-18T07:17:44.956Z,6.53
2023-03-18T07:19:56.976Z,6.88
2023-03-18T07:22:05.695Z,6.35
2023-03-18T07:24:14.449Z,6.63
2023-03-18T07:26:22.519Z,6.18
2023-03-18T07:28:30.364Z,5.88
2023-03-18T07:30:38.667Z,6.07
2023-03-18T07:32:46.570Z,6.20
2023-03-18T07:34:57.271Z,6.13
2023-03-18T07:37:05.240Z,6.47
2023-03-18T07:39:13.206Z,5.80
2023-03-18T07:41:21.016Z,5.93
2023-03-18T07:43:29.431Z,6.15
2023-03-18T07:45:37.570Z,5.80
2023-03-18T07:47:47.169Z,6.70
2023-03-18T07:49:57.944Z,5.53
2023-03-18T07:52:05.755Z,5.90
2023-03-18T07:54:14.549Z,5.85
2023-03-18T07:56:23.074Z,6.00
2023-03-18T07:58:31.083Z,5.95
2023-03-18T08:00:39.282Z,6.43
2023-03-18T08:02:48.110Z,7.13
2023-03-18T08:04:59.396Z,6.55
2023-03-18T08:07:07.944Z,6.65
2023-03-18T08:09:16.883Z,7.03
2023-03-18T08:11:25.002Z,7.53
2023-03-18T08:13:34.324Z,7.20
2023-03-18T08:15:43.461Z,7.10
2023-03-18T08:18:07.075Z,6.40
2023-03-18T08:20:20.215Z,6.68
2023-03-18T08:22:28.332Z,6.35
2023-03-18T08:24:37.440Z,5.78
2023-03-18T08:26:45.398Z,5.38
2023-03-18T08:28:53.284Z,6.00
2023-03-18T08:31:01.809Z,5.95
2023-03-18T08:33:10.275Z,6.68
2023-03-18T08:35:21.435Z,6.10
2023-03-18T08:37:29.311Z,5.65
2023-03-18T08:39:37.445Z,5.75
2023-03-18T08:41:45.905Z,5.00
2023-03-18T08:43:55.523Z,4.97
2023-03-18T08:46:05.023Z,6.30
2023-03-18T08:48:13.569Z,6.00
2023-03-18T08:50:28.568Z,5.80
2023-03-18T08:52:38.818Z,6.35
2023-03-18T08:54:46.697Z,6.70
2023-03-18T08:56:55.415Z,6.47
2023-03-18T08:59:03.335Z,7.57
2023-03-18T09:01:12.122Z,6.65
2023-03-18T09:03:20.170Z,5.93
2023-03-18T09:05:31.714Z,6.25
2023-03-18T09:07:40.043Z,5.53
2023-03-18T09:09:48.431Z,5.80
2023-03-18T09:11:56.836Z,6.00
2023-03-18T09:14:04.804Z,5.32
2023-03-18T09:16:13.001Z,5.97
2023-03-18T09:18:24.054Z,5.90
2023-03-18T09:20:35.962Z,6.32
2023-03-18T09:22:45.653Z,5.30
2023-03-18T09:24:54.189Z,5.22
2023-03-18T09:27:02.683Z,4.82
2023-03-18T09:29:10.931Z,5.40
2023-03-18T09:31:19.484Z,4.80
2023-03-18T09:33:27.613Z,3.90
2023-03-18T09:35:38.629Z,3.50
2023-03-18T09:37:47.124Z,3.70
2023-03-18T09:39:55.154Z,3.20
2023-03-18T09:42:22.236Z,3.30
2023-03-18T09:44:33.730Z,3.75
2023-03-18T09:46:55.599Z,2.72
2023-03-18T09:49:18.939Z,3.50
2023-03-18T09:51:43.490Z,3.30
2023-03-18T09:53:59.945Z,3.40
2023-03-18T09:56:11.068Z,2.70
2023-03-18T09:58:25.420Z,2.57
2023-03-18T10:00:37.046Z,2.70
2023-03-18T10:02:50.551Z,2.80
2023-03-18T10:05:03.390Z,2.60
2023-03-18T10:07:17.718Z,2.70
2023-03-18T10:09:30.510Z,2.47
2023-03-18T10:11:42.763Z,2.97
2023-03-18T10:14:00.710Z,2.50
2023-03-18T10:16:13.693Z,3.30
2023-03-18T10:18:29.147Z,3.13
2023-03-18T10:20:48.704Z,3.10
2023-03-18T10:23:08.607Z,3.80
2023-03-18T10:25:21.880Z,2.70
2023-03-18T10:27:43.740Z,2.57
2023-03-18T10:30:04.277Z,2.57
2023-03-18T10:32:21.901Z,3.10
2023-03-18T10:34:36.645Z,2.17
2023-03-18T10:36:52.944Z,2.50
2023-03-18T10:39:05.150Z,2.67
2023-03-18T10:41:20.414Z,2.60
2023-03-18T10:43:33.847Z,2.50
2023-03-18T10:45:42.190Z,2.80
2023-03-18T10:47:56.590Z,2.03
2023-03-18T10:50:11.044Z,1.60
2023-03-18T10:52:23.752Z,2.23
2023-03-18T10:54:42.472Z,1.90
2023-03-18T10:56:50.725Z,1.90
2023-03-18T10:59:00.222Z,2.00
2023-03-18T11:01:10.485Z,2.10
2023-03-18T11:03:25.715Z,2.10
2023-03-18T11:05:36.962Z,2.30
2023-03-18T11:07:59.941Z,2.67
2023-03-18T11:10:21.699Z,2.15
2023-03-18T11:12:32.033Z,2.83
2023-03-18T11:14:40.950Z,2.10
2023-03-18T11:16:52.895Z,2.80
2023-03-18T11:19:01.488Z,2.45
2023-03-18T11:21:13.240Z,2.55
2023-03-18T11:23:46.561Z,2.50
2023-03-18T11:25:58.676Z,2.03
2023-03-18T11:28:08.845Z,2.15
2023-03-18T11:30:33.612Z,1.70
2023-03-18T11:32:54.950Z,1.48
2023-03-18T11:35:05.457Z,1.15
2023-03-18T11:37:14.520Z,1.50
2023-03-18T11:39:22.638Z,1.40
2023-03-18T11:41:33.365Z,1.60
2023-03-18T11:43:41.882Z,1.45
2023-03-18T11:45:54.264Z,1.65
2023-03-18T11:48:02.396Z,1.50
2023-03-18T11:50:23.928Z,1.33
2023-03-18T11:52:42.369Z,2.22
2023-03-18T11:55:26.298Z,1.33
2023-03-18T11:57:45.373Z,1.60
2023-03-18T12:00:13.466Z,2.25
2023-03-18T12:02:34.232Z,1.60
2023-03-18T12:04:58.164Z,2.28
2023-03-18T12:07:22.044Z,2.15
2023-03-18T12:09:38.594Z,1.42
2023-03-18T12:11:59.144Z,1.50
2023-03-18T12:14:20.605Z,1.40
2023-03-18T12:16:41.670Z,1.20
2023-03-18T12:19:05.634Z,1.13
2023-03-18T12:21:30.915Z,1.70
2023-03-18T12:23:59.495Z,1.25
2023-03-18T12:26:10.920Z,1.15
2023-03-18T12:28:32.166Z,1.40
2023-03-18T12:30:59.153Z,1.58
2023-03-18T12:33:27.330Z,1.13
2023-03-18T12:35:49.685Z,1.38
2023-03-18T12:38:19.975Z,2.22
2023-03-18T12:40:48.716Z,1.23
2023-03-18T12:43:38.141Z,1.90
2023-03-18T12:45:53.709Z,1.50
2023-03-18T12:48:06.613Z,1.30
2023-03-18T12:50:20.844Z,1.55
2023-03-18T12:52:38.855Z,1.55
2023-03-18T12:54:51.611Z,1.63
2023-03-18T12:57:06.274Z,2.55
2023-03-18T12:59:23.113Z,3.15
2023-03-18T13:01:37.438Z,1.60
2023-03-18T13:03:47.873Z,2.75
2023-03-18T13:05:59.898Z,1.75
2023-03-18T13:08:28.599Z,2.08
2023-03-18T13:10:41.116Z,2.50
2023-03-18T13:12:52.060Z,1.27
2023-03-18T13:15:07.794Z,1.90
2023-03-18T13:17:23.728Z,1.20
2023-03-18T13:19:32.090Z,1.60
2023-03-18T13:21:46.117Z,2.05
2023-03-18T13:24:13.412Z,3.33
2023-03-18T13:26:31.749Z,3.20
2023-03-18T13:28:57.124Z,3.20
2023-03-18T13:31:17.711Z,5.10
2023-03-18T13:33:56.088Z,5.80
2023-03-18T13:36:18.861Z,3.47
2023-03-18T13:38:46.958Z,1.55
2023-03-18T13:41:07.501Z,2.25
2023-03-18T13:43:20.258Z,3.03
2023-03-18T13:45:33.935Z,1.55
2023-03-18T13:47:45.249Z,1.55
2023-03-18T13:50:03.941Z,2.08
2023-03-18T13:52:27.369Z,2.03
2023-03-18T13:54:39.012Z,1.50
2023-03-18T13:56:55.627Z,1.98
2023-03-18T13:59:08.571Z,1.95
2023-03-18T14:01:33.305Z,2.00
2023-03-18T14:03:57.220Z,1.83
2023-03-18T14:06:28.303Z,2.03
2023-03-18T14:08:51.843Z,1.70
2023-03-18T14:11:29.496Z,1.85
2023-03-18T14:13:37.518Z,1.20
2023-03-18T14:15:47.348Z,1.10
2023-03-18T14:17:59.939Z,1.30
2023-03-18T14:20:26.010Z,1.60
2023-03-18T14:22:41.029Z,1.60
2023-03-18T14:24:50.407Z,1.20
2023-03-18T14:27:12.726Z,1.25
2023-03-18T14:29:28.464Z,1.20
2023-03-18T14:31:53.778Z,1.20
2023-03-18T14:34:10.276Z,1.23
2023-03-18T14:36:19.049Z,1.30
2023-03-18T14:38:32.138Z,1.92
2023-03-18T14:40:44.640Z,1.52
2023-03-18T14:43:00.220Z,1.67
2023-03-18T14:45:15.710Z,2.00
2023-03-18T14:47:38.205Z,1.70
2023-03-18T14:49:50.370Z,1.42
2023-03-18T14:51:58.872Z,1.13
2023-03-18T14:54:21.017Z,1.50
2023-03-18T14:56:33.254Z,1.40
2023-03-18T14:58:41.372Z,1.33
2023-03-18T15:00:51.842Z,1.90
2023-03-18T15:03:03.916Z,1.70
2023-03-18T15:05:16.799Z,1.50
2023-03-18T15:07:33.169Z,1.30
2023-03-18T15:09:46.490Z,1.40
2023-03-18T15:11:54.601Z,1.70
2023-03-18T15:14:02.813Z,1.45
2023-03-18T15:16:14.496Z,1.55
2023-03-18T15:18:27.683Z,1.60
2023-03-18T15:20:42.188Z,1.60
2023-03-18T15:22:50.366Z,1.70
2023-03-18T15:25:04.742Z,1.67
2023-03-18T15:27:18.039Z,1.85
2023-03-18T15:29:31.629Z,1.80
2023-03-18T15:31:46.310Z,1.77
2023-03-18T15:34:07.758Z,1.90
2023-03-18T15:36:20.736Z,1.65
2023-03-18T15:38:31.607Z,1.55
2023-03-18T15:40:50.022Z,1.60
2023-03-18T15:43:00.119Z,1.75
2023-03-18T15:45:09.185Z,2.00
2023-03-18T15:47:19.922Z,2.15
2023-03-18T15:49:30.835Z,1.80
2023-03-18T15:51:48.091Z,1.73
2023-03-18T15:53:57.955Z,1.65
2023-03-18T15:56:19.906Z,1.80
2023-03-18T15:58:30.389Z,2.20
2023-03-18T16:00:38.676Z,2.78
2023-03-18T16:02:46.580Z,3.38
2023-03-18T16:04:54.572Z,3.25
2023-03-18T16:07:03.992Z,3.65
2023-03-18T16:09:21.084Z,2.60
2023-03-18T16:11:31.830Z,3.63
2023-03-18T16:13:40.278Z,2.67
2023-03-18T16:15:49.296Z,2.75
2023-03-18T16:17:58.654Z,2.70
2023-03-18T16:20:17.214Z,3.15
2023-03-18T16:22:25.371Z,3.20
2023-03-18T16:24:33.297Z,2.90
2023-03-18T16:26:44.356Z,4.07
2023-03-18T16:28:52.115Z,3.92
2023-03-18T16:31:01.056Z,3.90
2023-03-18T16:33:15.047Z,4.55
2023-03-18T16:35:25.537Z,3.45
2023-03-18T16:37:34.083Z,3.78
2023-03-18T16:39:42.318Z,4.43
2023-03-18T16:41:53.774Z,3.70
2023-03-18T16:44:01.562Z,3.20
2023-03-18T16:46:09.762Z,2.72
2023-03-18T16:48:20.200Z,3.25
2023-03-18T16:50:32.357Z,2.90
2023-03-18T16:52:40.308Z,2.90
2023-03-18T16:54:48.124Z,2.92
2023-03-18T16:57:02.192Z,2.80
2023-03-18T16:59:16.671Z,3.33
2023-03-18T17:01:26.660Z,3.15
2023-03-18T17:03:35.477Z,3.30
2023-03-18T17:05:43.618Z,3.80
2023-03-18T17:07:52.513Z,3.70
2023-03-18T17:10:00.394Z,3.30
2023-03-18T17:12:12.162Z,3.40
2023-03-18T17:14:31.934Z,3.25
2023-03-18T17:16:40.170Z,3.67
2023-03-18T17:18:48.582Z,3.50
2023-03-18T17:20:57.232Z,3.13
2023-03-18T17:23:06.000Z,3.22
2023-03-18T17:25:14.425Z,3.08
2023-03-18T17:27:27.400Z,3.10
2023-03-18T17:29:35.387Z,3.33
2023-03-18T17:31:43.149Z,3.15
2023-03-18T17:33:51.260Z,2.95
2023-03-18T17:36:00.427Z,3.45
2023-03-18T17:38:10.148Z,3.45
2023-03-18T17:40:20.548Z,3.10
2023-03-18T17:42:36.056Z,4.20
2023-03-18T17:44:43.813Z,3.97
2023-03-18T17:46:52.123Z,4.00
2023-03-18T17:49:00.759Z,4.05
2023-03-18T17:51:13.694Z,3.83
2023-03-18T17:53:32.889Z,4.80
2023-03-18T17:55:40.770Z,4.38
2023-03-18T17:57:52.106Z,5.97
2023-03-18T17:59:59.904Z,6.35
2023-03-18T18:02:14.917Z,6.78
2023-03-18T18:04:24.939Z,8.68
2023-03-18T18:06:34.147Z,6.72
2023-03-18T18:08:41.966Z,8.80
2023-03-18T18:10:51.024Z,9.07
2023-03-18T18:13:02.850Z,7.80
2023-03-18T18:15:21.427Z,6.03
2023-03-18T18:17:29.327Z,6.90
2023-03-18T18:19:37.122Z,10.98
2023-03-18T18:21:46.737Z,11.77
2023-03-18T18:23:54.671Z,7.50
2023-03-18T18:26:05.527Z,8.57
2023-03-18T18:28:22.538Z,7.65
2023-03-18T18:30:30.693Z,11.80
2023-03-18T18:32:38.574Z,8.52
2023-03-18T18:34:46.839Z,8.75
2023-03-18T18:36:55.942Z,9.77
2023-03-18T18:39:05.093Z,13.05
2023-03-18T18:41:13.423Z,13.55
2023-03-18T18:43:24.557Z,14.30
2023-03-18T18:45:34.348Z,11.50
2023-03-18T18:47:43.017Z,9.23
2023-03-18T18:49:51.008Z,8.30
2023-03-18T18:52:02.411Z,7.40
2023-03-18T18:54:11.439Z,6.75
2023-03-18T18:56:23.571Z,6.65
2023-03-18T18:58:36.641Z,7.60
2023-03-18T19:00:44.773Z,5.85
2023-03-18T19:02:56.489Z,5.15
2023-03-18T19:05:05.899Z,5.40
2023-03-18T19:07:14.927Z,5.95
2023-03-18T19:09:24.879Z,6.00
2023-03-18T19:11:33.555Z,5.25
2023-03-18T19:13:45.143Z,7.22
2023-03-18T19:15:54.083Z,7.78
2023-03-18T19:18:02.161Z,8.65
2023-03-18T19:20:29.434Z,7.82
2023-03-18T19:22:37.309Z,6.63
2023-03-18T19:24:47.890Z,6.25
2023-03-18T19:26:56.755Z,5.60
2023-03-18T19:29:07.992Z,6.25
2023-03-18T19:31:18.527Z,6.20
2023-03-18T19:33:27.664Z,6.82
2023-03-18T19:35:37.021Z,7.35
2023-03-18T19:37:48.015Z,6.93
2023-03-18T19:39:57.141Z,6.30
2023-03-18T19:42:05.215Z,6.40
2023-03-18T19:44:21.211Z,6.28
2023-03-18T19:46:36.158Z,6.40
2023-03-18T19:48:44.044Z,7.20
2023-03-18T19:50:52.081Z,6.90
2023-03-18T19:53:00.306Z,6.60
2023-03-18T19:55:10.194Z,6.82
2023-03-18T19:57:21.402Z,7.00
2023-03-18T19:59:38.800Z,6.50
2023-03-18T20:01:47.308Z,5.95
2023-03-18T20:03:58.854Z,7.13
2023-03-18T20:06:08.162Z,6.35
2023-03-18T20:08:16.876Z,6.40
2023-03-18T20:10:24.862Z,5.88
2023-03-18T20:12:36.867Z,6.20
2023-03-18T20:14:47.711Z,6.55
2023-03-18T20:16:55.752Z,7.72
2023-03-18T20:19:03.622Z,7.72
2023-03-18T20:21:20.715Z,9.65
2023-03-18T20:23:30.204Z,9.60
2023-03-18T20:25:41.774Z,8.65
2023-03-18T20:27:50.779Z,7.95
2023-03-18T20:30:01.849Z,8.35
2023-03-18T20:32:11.997Z,8.90
2023-03-18T20:34:19.792Z,10.35
2023-03-18T20:36:27.924Z,10.05
2023-03-18T20:38:39.131Z,10.75
2023-03-18T20:40:47.985Z,10.60
2023-03-18T20:42:55.812Z,8.82
2023-03-18T20:45:07.157Z,8.55
2023-03-18T20:47:16.444Z,8.20
2023-03-18T20:49:24.274Z,6.78
2023-03-18T20:51:36.815Z,6.63
2023-03-18T20:53:45.627Z,6.63
2023-03-18T20:55:54.304Z,6.53
2023-03-18T20:58:03.552Z,6.75
2023-03-18T21:00:18.853Z,6.00
2023-03-18T21:02:34.868Z,6.15
2023-03-18T21:04:42.636Z,7.05
2023-03-18T21:06:50.613Z,6.60
2023-03-18T21:08:58.475Z,6.55
2023-03-18T21:11:06.545Z,6.28
2023-03-18T21:13:21.580Z,7.15
2023-03-18T21:15:32.906Z,6.20
2023-03-18T21:17:40.842Z,6.30
2023-03-18T21:19:49.903Z,7.18
2023-03-18T21:21:57.975Z,6.18
2023-03-18T21:24:17.474Z,6.75
2023-03-18T21:26:26.787Z,7.55
2023-03-18T21:28:34.775Z,6.93
2023-03-18T21:30:45.982Z,7.07
2023-03-18T21:32:53.939Z,8.65
2023-03-18T21:35:02.301Z,10.05
2023-03-18T21:37:16.868Z,10.30
2023-03-18T21:39:24.764Z,8.93
2023-03-18T21:41:33.589Z,9.65
2023-03-18T21:43:43.531Z,9.70
2023-03-18T21:45:54.288Z,10.50
2023-03-18T21:48:02.512Z,10.10
2023-03-18T21:50:15.355Z,10.93
2023-03-18T21:52:28.623Z,10.65
2023-03-18T21:54:36.393Z,11.77
2023-03-18T21:56:44.310Z,9.90
2023-03-18T21:58:52.718Z,9.30
2023-03-18T22:01:03.829Z,10.68
2023-03-18T22:03:17.080Z,9.70
2023-03-18T22:05:26.210Z,9.80
2023-03-18T22:07:34.988Z,9.55
2023-03-18T22:09:43.067Z,9.90
2023-03-18T22:11:51.111Z,8.30
2023-03-18T22:13:58.912Z,8.93
2023-03-18T22:16:14.204Z,9.07
2023-03-18T22:18:23.071Z,9.90
2023-03-18T22:20:31.615Z,9.20
2023-03-18T22:22:40.257Z,8.73
2023-03-18T22:24:49.189Z,8.35
2023-03-18T22:26:57.162Z,9.23
2023-03-18T22:29:05.086Z,8.50
2023-03-18T22:31:22.877Z,7.57
2023-03-18T22:33:33.499Z,9.35
2023-03-18T22:35:41.616Z,9.15
2023-03-18T22:37:50.527Z,8.82
2023-03-18T22:40:00.842Z,8.82
2023-03-18T22:42:09.225Z,8.50
2023-03-18T22:44:22.775Z,8.55
2023-03-18T22:46:33.346Z,8.25
2023-03-18T22:48:41.635Z,7.95
2023-03-18T22:50:49.537Z,8.02
2023-03-18T22:53:03.148Z,7.55
2023-03-18T22:55:20.873Z,7.40
2023-03-18T22:57:30.518Z,8.40
2023-03-18T22:59:38.568Z,7.43
2023-03-18T23:01:49.199Z,9.07
2023-03-18T23:03:57.432Z,7.65
2023-03-18T23:06:07.645Z,8.50
2023-03-18T23:08:16.101Z,8.30
2023-03-18T23:10:24.854Z,8.07
2023-03-18T23:12:34.728Z,8.80
2023-03-18T23:14:42.723Z,8.40
2023-03-18T23:16:53.328Z,8.52
2023-03-18T23:19:01.184Z,8.18
2023-03-18T23:21:09.210Z,8.52
2023-03-18T23:23:18.330Z,8.15
2023-03-18T23:25:26.082Z,8.85
2023-03-18T23:27:34.584Z,8.90
2023-03-18T23:29:43.522Z,9.13
2023-03-18T23:31:54.240Z,9.00
2023-03-18T23:34:02.207Z,9.70
2023-03-18T23:36:11.053Z,12.52
2023-03-18T23:38:30.455Z,11.18
2023-03-18T23:40:39.572Z,12.10
2023-03-18T23:42:47.604Z,12.45
2023-03-18T23:44:55.563Z,11.85
2023-03-18T23:47:06.108Z,12.35
2023-03-18T23:49:14.253Z,11.50
2023-03-18T23:51:22.130Z,10.23
2023-03-18T23:53:30.261Z,11.10
2023-03-18T23:55:38.146Z,12.30
2023-03-18T23:57:46.713Z,12.57
2023-03-18T23:59:54.746Z,12.18
